Bass Lake, Indiana
Current Conditions -  °F | °C
As of 9:55 AM on Saturday 25 Oct 2014 (Local Time) from KOXI Reporting Station
Overcast Overcast  
Wind Chill: 53°   Ceiling: 100
Heat Index: 53°   Visibility: 1.2mi
Dew Point: 52°   Wind: 8mph
Humidity: 94%   Direction: 270°W
Pressure: 29.94"   Gusts: NA
Location:  41.2954°N, 86.6039°W
Report Text: KOXI 251455Z AUTO 27007KT 1 1/4SM OVC001 12/11 A2994 RMK AO1 T01190109
Loading
Personal Weather Stations






























Interactive Weather Map
Tropical Storm Tracking
New forecast layout! Learn more

10-Day Weather Forecast

Advertisements
Track Severe Weather on mobile